Latest Coastal Weather Observations for Arlington Reef

IDQ60701

Issued at 8:51 pm EST Thursday 11 February 2016 (issued every 10 minutes, with the page automatically refreshed every 10 minutes)

About coastal observations | Map of coastal stations | Coastal observations for QLD | Marine services | Other Formats
Station Details ID: 200879 Name: ARLINGTON REEF Lat: -16.72 Lon: 146.11 Height: 0.0 m
Data from the previous 72 hours. | See also: Recent months at Arlington Reef
Date/Time
EST
Temp

°C
Wind Pressure Rain
since 9am
mm
Weather Cloud Vis
km
Sea
Height
m
Swell
Dir
 
Speed
knots
Gust
knots
hPa Trend Height
m
Period
s
Dir
11/08:30pm - SE 12 14 1008.7 - - - - - - - - -
11/08:00pm - S 12 15 1008.4 - - - - - - - - -
11/07:30pm - SSE 11 14 1008.1 - - - - - - - - -
11/07:00pm - SE 8 9 1007.8 - - - - - - - - -
11/06:30pm - ESE 8 10 1007.6 - - - - - - - - -
11/06:00pm - ESE 11 13 1007.2 - - - - - - - - -
11/05:30pm - SE 12 14 1007.0 - - - - - - - - -
11/05:00pm - SE 16 19 1006.5 - - - - - - - - -
11/04:30pm - SE 18 21 1006.4 - - - - - - - - -
11/04:00pm - SE 21 24 1006.0 - - - - - - - - -
11/03:30pm - SSE 17 21 1006.3 - - - - - - - - -
11/03:00pm - S 11 14 1006.4 - - - - - - - - -
11/02:30pm - SSE 15 18 1006.4 - - - - - - - - -
11/02:00pm - SSE 18 20 1006.5 - - - - - - - - -
11/01:30pm - S 15 18 1007.0 - - - - - - - - -
11/01:00pm - SSE 13 19 1007.4 - - - - - - - - -
11/12:30pm - SSE 14 17 1007.6 - - - - - - - - -
11/12:00pm - SSE 13 14 1008.0 - - - - - - - - -
11/11:30am - SSE 14 17 1008.1 - - - - - - - - -
11/11:00am - SSE 13 15 1008.5 - - - - - - - - -
11/10:30am - SSE 12 14 1008.5 - - - - - - - - -
11/10:00am - SSE 12 15 1008.8 - - - - - - - - -
11/09:30am - SSE 12 14 1009.0 - - - - - - - - -
11/09:00am - SE 11 14 1008.8 - - - - - - - - -
11/08:30am - SSE 11 13 1008.7 - - - - - - - - -
11/08:00am - SSE 11 12 1008.5 - - - - - - - - -
11/07:30am - SSE 12 14 1008.1 - - - - - - - - -
11/07:00am - SE 12 14 1007.8 - - - - - - - - -
11/06:30am - SE 12 14 1007.7 - - - - - - - - -
11/06:00am - SE 12 15 1007.3 - - - - - - - - -
11/05:30am - SE 11 15 1006.9 - - - - - - - - -
11/05:00am - SE 12 14 1006.7 - - - - - - - - -
11/04:30am - SE 11 13 1006.6 - - - - - - - - -
11/04:00am - SE 14 15 1006.3 - - - - - - - - -
11/03:30am - SSE 9 11 1006.4 - - - - - - - - -
11/03:00am - SE 8 10 1006.3 - - - - - - - - -
11/02:30am - SE 14 19 1006.4 - - - - - - - - -
11/02:00am - SSE 11 13 1006.4 - - - - - - - - -
11/01:30am - SE 11 12 1006.8 - - - - - - - - -
11/01:00am - SSE 11 13 1007.2 - - - - - - - - -
11/12:30am - SSE 11 13 1007.7 - - - - - - - - -
11/12:00am - SSE 14 16 1007.9 - - - - - - - - -
 
Date/Time
EST
Temp

°C
Wind Pressure Rain
since 9am
mm
Weather Cloud Vis
km
Sea
Height
m
Swell
Dir
 
Speed
knots
Gust
knots
hPa Trend Height
m
Period
s
Dir
10/11:30pm - SSE 13 15 1008.1 - - - - - - - - -
10/11:00pm - SSE 13 16 1008.2 - - - - - - - - -
10/10:30pm - SSE 14 17 1008.5 - - - - - - - - -
10/10:00pm - SSE 14 17 1008.4 - - - - - - - - -
10/09:30pm - SE 14 17 1008.0 - - - - - - - - -
10/09:00pm - SE 15 17 1008.0 - - - - - - - - -
10/08:30pm - SSE 15 17 1008.0 - - - - - - - - -
10/08:00pm - SSE 14 16 1007.8 - - - - - - - - -
10/07:30pm - SSE 17 19 1007.5 - - - - - - - - -
10/07:00pm - SE 16 18 1007.2 - - - - - - - - -
10/06:30pm - SSE 16 19 1007.1 - - - - - - - - -
10/06:00pm - SSE 17 20 1006.5 - - - - - - - - -
10/05:30pm - SSE 17 19 1006.3 - - - - - - - - -
10/05:00pm - SSE 17 19 1006.0 - - - - - - - - -
10/04:30pm - SSE 17 21 1005.7 - - - - - - - - -
10/04:00pm - SSW 14 16 1005.7 - - - - - - - - -
10/03:30pm - SSW 15 17 1005.8 - - - - - - - - -
10/03:00pm - S 15 17 1006.1 - - - - - - - - -
10/02:30pm - SSW 16 19 1006.2 - - - - - - - - -
10/02:00pm - S 17 20 1006.5 - - - - - - - - -
10/01:30pm - SSW 14 16 1006.8 - - - - - - - - -
10/01:00pm - S 13 15 1007.2 - - - - - - - - -
10/12:30pm - S 18 21 1007.3 - - - - - - - - -
10/12:00pm - S 17 21 1007.5 - - - - - - - - -
10/11:30am - SSW 17 22 1007.9 - - - - - - - - -
10/11:00am - S 15 18 1008.1 - - - - - - - - -
10/10:30am - SSE 12 16 1008.3 - - - - - - - - -
10/10:00am - SSE 14 16 1008.3 - - - - - - - - -
10/09:30am - SSE 14 16 1008.5 - - - - - - - - -
10/09:00am - SSE 15 18 1008.7 - - - - - - - - -
10/08:30am - SSE 16 18 1008.4 - - - - - - - - -
10/08:00am - SSE 15 18 1008.1 - - - - - - - - -
10/07:30am - SSE 13 16 1007.8 - - - - - - - - -
10/07:00am - SSE 14 17 1007.4 - - - - - - - - -
10/06:30am - SSE 15 17 1006.9 - - - - - - - - -
10/06:00am - SSE 16 19 1006.7 - - - - - - - - -
10/05:30am - SSE 16 20 1006.4 - - - - - - - - -
10/05:00am - SSE 17 20 1006.2 - - - - - - - - -
10/04:30am - SSE 17 19 1006.0 - - - - - - - - -
10/04:00am - SE 17 19 1006.1 - - - - - - - - -
10/03:30am - SE 16 19 1006.2 - - - - - - - - -
10/03:00am - SSE 16 18 1006.2 - - - - - - - - -
10/02:30am - SSE 16 21 1006.3 - - - - - - - - -
10/02:00am - SE 15 17 1006.4 - - - - - - - - -
10/01:30am - SE 15 19 1006.7 - - - - - - - - -
10/01:00am - SSE 15 18 1007.2 - - - - - - - - -
10/12:30am - SSE 15 17 1007.6 - - - - - - - - -
10/12:00am - SSE 16 18 1007.9 - - - - - - - - -
 
Date/Time
EST
Temp

°C
Wind Pressure Rain
since 9am
mm
Weather Cloud Vis
km
Sea
Height
m
Swell
Dir
 
Speed
knots
Gust
knots
hPa Trend Height
m
Period
s
Dir
09/11:30pm - SSE 15 18 1008.2 - - - - - - - - -
09/11:00pm - SE 18 21 1008.5 - - - - - - - - -
09/10:30pm - SE 18 22 1008.7 - - - - - - - - -
09/10:00pm - SE 19 22 1008.5 - - - - - - - - -
09/09:30pm - SE 19 22 1008.1 - - - - - - - - -
09/09:00pm - SE 20 23 1007.9 - - - - - - - - -
09/08:30pm - SE 20 24 1007.9 - - - - - - - - -
09/08:00pm - SE 20 23 1007.7 - - - - - - - - -
09/07:30pm - SSE 20 23 1007.6 - - - - - - - - -
09/07:00pm - SSE 20 23 1006.8 - - - - - - - - -
09/06:30pm - SSE 20 24 1006.7 - - - - - - - - -
09/06:00pm - SSE 20 24 1006.3 - - - - - - - - -
09/05:30pm - SSE 20 23 1005.8 - - - - - - - - -
09/05:00pm - SSE 21 27 1005.8 - - - - - - - - -
09/04:30pm - SSE 20 23 1005.9 - - - - - - - - -
09/04:00pm - SSE 21 26 1005.6 - - - - - - - - -
09/03:30pm - SSE 20 25 1006.0 - - - - - - - - -
09/03:00pm - SSE 20 24 1006.5 - - - - - - - - -
09/02:30pm - S 20 23 1006.5 - - - - - - - - -
09/02:00pm - SSE 19 23 1007.0 - - - - - - - - -
09/01:30pm - SSE 19 23 1007.3 - - - - - - - - -
09/01:00pm - SE 19 26 1007.6 - - - - - - - - -
09/12:30pm - SSE 20 23 1007.9 - - - - - - - - -
09/12:20pm - SSE 19 23 1007.9 - - - - - - - - -
09/12:00pm - S 16 20 1008.1 - - - - - - - - -
09/11:30am - SSW 17 20 1008.2 - - - - - - - - -
09/11:00am - SSW 10 16 1008.6 - - - - - - - - -
09/10:30am - S 12 16 1009.0 - - - - - - - - -
09/10:00am - S 15 19 1009.3 - - - - - - - - -
09/09:30am - SSW 16 18 1009.0 - - - - - - - - -
09/09:00am - SSW 20 24 1008.7 - - - - - - - - -
09/08:30am - S 15 19 1008.5 - - - - - - - - -
09/08:00am - S 17 19 1008.1 - - - - - - - - -
09/07:30am - S 17 19 1007.8 - - - - - - - - -
09/07:00am - S 19 21 1007.8 - - - - - - - - -
09/06:30am - S 18 22 1007.2 - - - - - - - - -
09/06:00am - S 15 17 1007.1 - - - - - - - - -
09/05:30am - S 15 17 1006.6 - - - - - - - - -
09/05:00am - S 14 16 1006.8 - - - - - - - - -
09/04:30am - S 11 12 1007.1 - - - - - - - - -
09/04:00am - S 11 13 1007.4 - - - - - - - - -
09/03:30am - S 14 17 1007.5 - - - - - - - - -
09/03:03am - SSE 28 38 1007.7 - - - - - - - - -
09/03:00am - S 31 40 1007.6 - - - - - - - - -
09/02:50am - S 31 41 1007.1 - - - - - - - - -
09/02:30am - SSW 31 41 1007.0 - - - - - - - - -
09/02:24am - SSW 30 36 1007.0 - - - - - - - - -
09/02:10am - S 17 34 1007.5 - - - - - - - - -
09/02:00am - S 12 15 1007.7 - - - - - - - - -
09/01:30am - SSE 11 13 1007.6 - - - - - - - - -
09/01:00am - SE 13 16 1007.9 - - - - - - - - -
09/12:30am - SE 13 16 1007.9 - - - - - - - - -
09/12:00am - SE 13 15 1008.3 - - - - - - - - -
 
Date/Time
EST
Temp

°C
Wind Pressure Rain
since 9am
mm
Weather Cloud Vis
km
Sea
Height
m
Swell
Dir
 
Speed
knots
Gust
knots
hPa Trend Height
m
Period
s
Dir
08/11:30pm - SE 11 12 1009.0 - - - - - - - - -
08/11:00pm - SE 10 11 1009.3 - - - - - - - - -
08/10:30pm - SE 11 13 1009.2 - - - - - - - - -
08/10:00pm - SSE 12 13 1008.8 - - - - - - - - -
08/09:30pm - SE 11 13 1008.4 - - - - - - - - -
08/09:00pm - SE 13 15 1008.1 - - - - - - - - -

Other Formats:

Comma delimited format used in spreadsheet applications
http://www.bom.gov.au/fwo/IDQ60701/IDQ60701.94284.axf

JavaScript Object Notation format (JSON) in row-major order
http://www.bom.gov.au/fwo/IDQ60701/IDQ60701.94284.json